sensor_id;sensor_type;location;lat;lon;timestamp;P1;durP1;ratioP1;P2;durP2;ratioP2
7587;SDS011;3835;48.850;8.938;2023-05-29T00:00:08;16.57;;;15.23;;
7587;SDS011;3835;48.850;8.938;2023-05-29T00:02:36;16.37;;;15.27;;
7587;SDS011;3835;48.850;8.938;2023-05-29T00:05:02;15.90;;;14.73;;
7587;SDS011;3835;48.850;8.938;2023-05-29T00:07:30;17.10;;;15.90;;
7587;SDS011;3835;48.850;8.938;2023-05-29T00:09:59;17.53;;;16.13;;
7587;SDS011;3835;48.850;8.938;2023-05-29T00:12:26;15.77;;;14.57;;
7587;SDS011;3835;48.850;8.938;2023-05-29T00:14:53;16.23;;;15.07;;
7587;SDS011;3835;48.850;8.938;2023-05-29T00:17:20;16.47;;;15.13;;
7587;SDS011;3835;48.850;8.938;2023-05-29T00:19:47;17.93;;;16.37;;
7587;SDS011;3835;48.850;8.938;2023-05-29T00:22:14;17.90;;;16.53;;
7587;SDS011;3835;48.850;8.938;2023-05-29T00:24:40;15.67;;;14.30;;
7587;SDS011;3835;48.850;8.938;2023-05-29T00:27:08;15.50;;;14.40;;
7587;SDS011;3835;48.850;8.938;2023-05-29T00:29:35;16.67;;;15.57;;
7587;SDS011;3835;48.850;8.938;2023-05-29T00:32:03;16.63;;;15.33;;
7587;SDS011;3835;48.850;8.938;2023-05-29T00:34:30;15.90;;;14.90;;
7587;SDS011;3835;48.850;8.938;2023-05-29T00:36:57;17.33;;;16.03;;
7587;SDS011;3835;48.850;8.938;2023-05-29T00:39:24;20.90;;;19.63;;
7587;SDS011;3835;48.850;8.938;2023-05-29T00:41:51;15.83;;;14.63;;
7587;SDS011;3835;48.850;8.938;2023-05-29T00:44:19;15.20;;;14.07;;
7587;SDS011;3835;48.850;8.938;2023-05-29T00:46:46;18.97;;;17.60;;
7587;SDS011;3835;48.850;8.938;2023-05-29T00:49:15;20.00;;;18.70;;
7587;SDS011;3835;48.850;8.938;2023-05-29T00:51:42;18.57;;;17.27;;
7587;SDS011;3835;48.850;8.938;2023-05-29T00:54:11;23.20;;;21.70;;
7587;SDS011;3835;48.850;8.938;2023-05-29T00:56:40;17.43;;;16.20;;
7587;SDS011;3835;48.850;8.938;2023-05-29T00:59:09;17.07;;;15.77;;
7587;SDS011;3835;48.850;8.938;2023-05-29T01:01:38;16.87;;;15.67;;
7587;SDS011;3835;48.850;8.938;2023-05-29T01:04:06;17.17;;;16.00;;
7587;SDS011;3835;48.850;8.938;2023-05-29T01:06:33;16.90;;;15.67;;
7587;SDS011;3835;48.850;8.938;2023-05-29T01:08:59;17.23;;;16.17;;
7587;SDS011;3835;48.850;8.938;2023-05-29T01:11:28;17.33;;;16.13;;
7587;SDS011;3835;48.850;8.938;2023-05-29T01:14:19;17.83;;;16.40;;
7587;SDS011;3835;48.850;8.938;2023-05-29T01:16:59;18.57;;;17.03;;
7587;SDS011;3835;48.850;8.938;2023-05-29T01:19:36;17.67;;;15.93;;
7587;SDS011;3835;48.850;8.938;2023-05-29T01:22:12;17.43;;;16.03;;
7587;SDS011;3835;48.850;8.938;2023-05-29T01:24:49;16.97;;;15.73;;
7587;SDS011;3835;48.850;8.938;2023-05-29T01:27:21;16.47;;;15.23;;
7587;SDS011;3835;48.850;8.938;2023-05-29T01:29:53;16.83;;;15.63;;
7587;SDS011;3835;48.850;8.938;2023-05-29T01:32:22;18.37;;;17.10;;
7587;SDS011;3835;48.850;8.938;2023-05-29T01:34:50;18.10;;;16.73;;
7587;SDS011;3835;48.850;8.938;2023-05-29T01:37:17;18.33;;;17.00;;
7587;SDS011;3835;48.850;8.938;2023-05-29T01:39:44;19.50;;;18.10;;
7587;SDS011;3835;48.850;8.938;2023-05-29T01:42:11;19.93;;;18.60;;
7587;SDS011;3835;48.850;8.938;2023-05-29T01:44:40;17.10;;;15.87;;
7587;SDS011;3835;48.850;8.938;2023-05-29T01:47:08;16.40;;;15.20;;
7587;SDS011;3835;48.850;8.938;2023-05-29T01:49:35;18.43;;;17.13;;
7587;SDS011;3835;48.850;8.938;2023-05-29T01:52:04;16.73;;;15.73;;
7587;SDS011;3835;48.850;8.938;2023-05-29T01:54:31;17.33;;;16.20;;
7587;SDS011;3835;48.850;8.938;2023-05-29T01:56:58;16.73;;;15.63;;
7587;SDS011;3835;48.850;8.938;2023-05-29T01:59:27;16.73;;;15.27;;
7587;SDS011;3835;48.850;8.938;2023-05-29T02:01:56;18.00;;;16.60;;
7587;SDS011;3835;48.850;8.938;2023-05-29T02:04:23;15.73;;;14.30;;
7587;SDS011;3835;48.850;8.938;2023-05-29T02:06:49;18.67;;;16.90;;
7587;SDS011;3835;48.850;8.938;2023-05-29T02:09:18;17.27;;;16.03;;
7587;SDS011;3835;48.850;8.938;2023-05-29T02:11:45;20.60;;;19.27;;
7587;SDS011;3835;48.850;8.938;2023-05-29T02:14:12;18.30;;;16.63;;
7587;SDS011;3835;48.850;8.938;2023-05-29T02:16:38;19.60;;;18.33;;
7587;SDS011;3835;48.850;8.938;2023-05-29T02:19:07;16.77;;;15.57;;
7587;SDS011;3835;48.850;8.938;2023-05-29T02:21:34;17.43;;;16.13;;
7587;SDS011;3835;48.850;8.938;2023-05-29T02:24:00;17.23;;;16.13;;
7587;SDS011;3835;48.850;8.938;2023-05-29T02:26:27;15.77;;;14.67;;
7587;SDS011;3835;48.850;8.938;2023-05-29T02:28:54;17.13;;;15.70;;
7587;SDS011;3835;48.850;8.938;2023-05-29T02:31:21;17.03;;;15.73;;
7587;SDS011;3835;48.850;8.938;2023-05-29T02:33:48;17.00;;;15.63;;
7587;SDS011;3835;48.850;8.938;2023-05-29T02:36:16;17.10;;;15.90;;
7587;SDS011;3835;48.850;8.938;2023-05-29T02:38:43;16.27;;;15.17;;
7587;SDS011;3835;48.850;8.938;2023-05-29T02:41:09;16.80;;;15.60;;
7587;SDS011;3835;48.850;8.938;2023-05-29T02:43:36;18.57;;;17.17;;
7587;SDS011;3835;48.850;8.938;2023-05-29T02:46:03;17.83;;;16.53;;
7587;SDS011;3835;48.850;8.938;2023-05-29T02:48:30;17.30;;;15.90;;
7587;SDS011;3835;48.850;8.938;2023-05-29T02:50:57;17.43;;;16.33;;
7587;SDS011;3835;48.850;8.938;2023-05-29T02:53:25;19.63;;;18.13;;
7587;SDS011;3835;48.850;8.938;2023-05-29T02:55:51;19.30;;;17.90;;
7587;SDS011;3835;48.850;8.938;2023-05-29T02:58:18;19.60;;;18.23;;
7587;SDS011;3835;48.850;8.938;2023-05-29T03:00:46;18.90;;;17.67;;
7587;SDS011;3835;48.850;8.938;2023-05-29T03:03:12;16.30;;;15.20;;
7587;SDS011;3835;48.850;8.938;2023-05-29T03:05:39;16.23;;;15.07;;
7587;SDS011;3835;48.850;8.938;2023-05-29T03:08:06;16.93;;;15.73;;
7587;SDS011;3835;48.850;8.938;2023-05-29T03:10:34;16.33;;;15.03;;
7587;SDS011;3835;48.850;8.938;2023-05-29T03:13:01;17.40;;;16.30;;
7587;SDS011;3835;48.850;8.938;2023-05-29T03:15:28;16.60;;;15.43;;
7587;SDS011;3835;48.850;8.938;2023-05-29T03:17:55;16.87;;;15.23;;
7587;SDS011;3835;48.850;8.938;2023-05-29T03:20:22;17.30;;;15.90;;
7587;SDS011;3835;48.850;8.938;2023-05-29T03:22:48;17.80;;;16.07;;
7587;SDS011;3835;48.850;8.938;2023-05-29T03:25:15;17.00;;;15.60;;
7587;SDS011;3835;48.850;8.938;2023-05-29T03:27:44;17.30;;;16.13;;
7587;SDS011;3835;48.850;8.938;2023-05-29T03:30:11;17.20;;;16.03;;
7587;SDS011;3835;48.850;8.938;2023-05-29T03:32:38;16.27;;;15.07;;
7587;SDS011;3835;48.850;8.938;2023-05-29T03:35:05;16.53;;;15.33;;
7587;SDS011;3835;48.850;8.938;2023-05-29T03:37:32;16.57;;;15.47;;
7587;SDS011;3835;48.850;8.938;2023-05-29T03:39:59;18.70;;;17.30;;
7587;SDS011;3835;48.850;8.938;2023-05-29T03:42:26;17.67;;;16.27;;
7587;SDS011;3835;48.850;8.938;2023-05-29T03:44:54;17.23;;;15.80;;
7587;SDS011;3835;48.850;8.938;2023-05-29T03:47:21;16.80;;;15.60;;
7587;SDS011;3835;48.850;8.938;2023-05-29T03:49:47;18.23;;;16.87;;
7587;SDS011;3835;48.850;8.938;2023-05-29T03:52:15;16.97;;;15.67;;
7587;SDS011;3835;48.850;8.938;2023-05-29T03:54:41;17.17;;;15.90;;
7587;SDS011;3835;48.850;8.938;2023-05-29T03:57:09;16.00;;;14.97;;
7587;SDS011;3835;48.850;8.938;2023-05-29T03:59:36;15.40;;;14.30;;
7587;SDS011;3835;48.850;8.938;2023-05-29T04:02:04;17.80;;;16.50;;
7587;SDS011;3835;48.850;8.938;2023-05-29T04:04:31;17.40;;;16.20;;
7587;SDS011;3835;48.850;8.938;2023-05-29T04:06:58;18.10;;;16.63;;
7587;SDS011;3835;48.850;8.938;2023-05-29T04:09:25;18.00;;;16.80;;
7587;SDS011;3835;48.850;8.938;2023-05-29T04:11:52;20.33;;;19.03;;
7587;SDS011;3835;48.850;8.938;2023-05-29T04:14:20;19.37;;;17.97;;
7587;SDS011;3835;48.850;8.938;2023-05-29T04:16:46;17.70;;;16.57;;
7587;SDS011;3835;48.850;8.938;2023-05-29T04:19:14;16.33;;;15.40;;
7587;SDS011;3835;48.850;8.938;2023-05-29T04:21:41;17.00;;;15.80;;
7587;SDS011;3835;48.850;8.938;2023-05-29T04:24:08;17.70;;;16.40;;
7587;SDS011;3835;48.850;8.938;2023-05-29T04:26:36;17.93;;;16.67;;
7587;SDS011;3835;48.850;8.938;2023-05-29T04:29:06;17.07;;;15.87;;
7587;SDS011;3835;48.850;8.938;2023-05-29T04:31:33;17.47;;;16.20;;
7587;SDS011;3835;48.850;8.938;2023-05-29T04:34:01;18.87;;;17.30;;
7587;SDS011;3835;48.850;8.938;2023-05-29T04:36:30;16.00;;;14.90;;
7587;SDS011;3835;48.850;8.938;2023-05-29T04:38:58;17.80;;;16.67;;
7587;SDS011;3835;48.850;8.938;2023-05-29T04:41:25;17.67;;;16.27;;
7587;SDS011;3835;48.850;8.938;2023-05-29T04:43:56;18.27;;;16.97;;
7587;SDS011;3835;48.850;8.938;2023-05-29T04:46:23;16.50;;;15.50;;
7587;SDS011;3835;48.850;8.938;2023-05-29T04:48:50;18.37;;;17.17;;
7587;SDS011;3835;48.850;8.938;2023-05-29T04:51:18;17.07;;;15.97;;
7587;SDS011;3835;48.850;8.938;2023-05-29T04:53:46;17.60;;;16.47;;
7587;SDS011;3835;48.850;8.938;2023-05-29T04:56:13;16.67;;;15.47;;
7587;SDS011;3835;48.850;8.938;2023-05-29T04:58:40;15.80;;;14.70;;
7587;SDS011;3835;48.850;8.938;2023-05-29T05:01:07;17.30;;;16.10;;
7587;SDS011;3835;48.850;8.938;2023-05-29T05:03:34;17.30;;;16.20;;
7587;SDS011;3835;48.850;8.938;2023-05-29T05:06:01;18.63;;;17.43;;
7587;SDS011;3835;48.850;8.938;2023-05-29T05:08:29;18.37;;;17.10;;
7587;SDS011;3835;48.850;8.938;2023-05-29T05:10:59;23.00;;;21.40;;
7587;SDS011;3835;48.850;8.938;2023-05-29T05:13:26;25.53;;;23.93;;
7587;SDS011;3835;48.850;8.938;2023-05-29T05:15:53;19.07;;;17.97;;
7587;SDS011;3835;48.850;8.938;2023-05-29T05:18:20;18.63;;;17.53;;
7587;SDS011;3835;48.850;8.938;2023-05-29T05:20:47;18.97;;;17.83;;
7587;SDS011;3835;48.850;8.938;2023-05-29T05:23:14;21.43;;;20.07;;
7587;SDS011;3835;48.850;8.938;2023-05-29T05:25:40;20.10;;;18.47;;
7587;SDS011;3835;48.850;8.938;2023-05-29T05:28:09;18.70;;;17.60;;
7587;SDS011;3835;48.850;8.938;2023-05-29T05:30:36;22.53;;;21.23;;
7587;SDS011;3835;48.850;8.938;2023-05-29T05:33:02;18.17;;;17.07;;
7587;SDS011;3835;48.850;8.938;2023-05-29T05:35:29;17.80;;;16.57;;
7587;SDS011;3835;48.850;8.938;2023-05-29T05:37:56;19.00;;;17.70;;
7587;SDS011;3835;48.850;8.938;2023-05-29T05:40:23;18.27;;;16.97;;
7587;SDS011;3835;48.850;8.938;2023-05-29T05:42:50;19.30;;;18.00;;
7587;SDS011;3835;48.850;8.938;2023-05-29T05:45:18;18.67;;;17.57;;
7587;SDS011;3835;48.850;8.938;2023-05-29T05:47:45;18.17;;;17.07;;
7587;SDS011;3835;48.850;8.938;2023-05-29T05:50:13;17.73;;;16.73;;
7587;SDS011;3835;48.850;8.938;2023-05-29T05:52:40;16.37;;;15.20;;
7587;SDS011;3835;48.850;8.938;2023-05-29T05:55:07;16.60;;;15.60;;
7587;SDS011;3835;48.850;8.938;2023-05-29T05:57:34;16.80;;;15.63;;
7587;SDS011;3835;48.850;8.938;2023-05-29T06:00:01;17.77;;;16.67;;
7587;SDS011;3835;48.850;8.938;2023-05-29T06:02:30;17.27;;;16.07;;
7587;SDS011;3835;48.850;8.938;2023-05-29T06:04:57;21.53;;;20.30;;
7587;SDS011;3835;48.850;8.938;2023-05-29T06:07:24;19.00;;;18.00;;
7587;SDS011;3835;48.850;8.938;2023-05-29T06:09:51;15.37;;;14.27;;
7587;SDS011;3835;48.850;8.938;2023-05-29T06:12:17;16.63;;;15.73;;
7587;SDS011;3835;48.850;8.938;2023-05-29T06:14:44;18.77;;;17.57;;
7587;SDS011;3835;48.850;8.938;2023-05-29T06:17:11;21.43;;;19.73;;
7587;SDS011;3835;48.850;8.938;2023-05-29T06:19:39;20.23;;;18.93;;
7587;SDS011;3835;48.850;8.938;2023-05-29T06:22:06;21.73;;;20.23;;
7587;SDS011;3835;48.850;8.938;2023-05-29T06:24:32;17.93;;;16.70;;
7587;SDS011;3835;48.850;8.938;2023-05-29T06:26:59;22.77;;;21.23;;
7587;SDS011;3835;48.850;8.938;2023-05-29T06:29:26;19.10;;;17.93;;
7587;SDS011;3835;48.850;8.938;2023-05-29T06:31:53;18.77;;;17.67;;
7587;SDS011;3835;48.850;8.938;2023-05-29T06:34:19;23.27;;;21.87;;
7587;SDS011;3835;48.850;8.938;2023-05-29T06:36:47;20.17;;;18.97;;
7587;SDS011;3835;48.850;8.938;2023-05-29T06:39:14;17.90;;;16.87;;
7587;SDS011;3835;48.850;8.938;2023-05-29T06:41:43;20.00;;;18.90;;
7587;SDS011;3835;48.850;8.938;2023-05-29T06:44:09;22.03;;;20.83;;
7587;SDS011;3835;48.850;8.938;2023-05-29T06:46:36;21.53;;;19.87;;
7587;SDS011;3835;48.850;8.938;2023-05-29T06:49:03;18.40;;;17.17;;
7587;SDS011;3835;48.850;8.938;2023-05-29T06:51:30;23.17;;;21.97;;
7587;SDS011;3835;48.850;8.938;2023-05-29T06:54:00;20.27;;;19.10;;
7587;SDS011;3835;48.850;8.938;2023-05-29T06:56:27;16.77;;;15.53;;
7587;SDS011;3835;48.850;8.938;2023-05-29T06:58:55;17.23;;;16.17;;
7587;SDS011;3835;48.850;8.938;2023-05-29T07:01:22;16.57;;;15.57;;
7587;SDS011;3835;48.850;8.938;2023-05-29T07:03:51;19.57;;;18.27;;
7587;SDS011;3835;48.850;8.938;2023-05-29T07:06:18;19.73;;;18.60;;
7587;SDS011;3835;48.850;8.938;2023-05-29T07:08:45;17.90;;;16.90;;
7587;SDS011;3835;48.850;8.938;2023-05-29T07:11:13;20.67;;;19.40;;
7587;SDS011;3835;48.850;8.938;2023-05-29T07:13:40;22.67;;;21.20;;
7587;SDS011;3835;48.850;8.938;2023-05-29T07:16:07;18.33;;;16.83;;
7587;SDS011;3835;48.850;8.938;2023-05-29T07:18:33;16.67;;;15.67;;
7587;SDS011;3835;48.850;8.938;2023-05-29T07:21:00;16.97;;;15.53;;
7587;SDS011;3835;48.850;8.938;2023-05-29T07:23:27;18.23;;;17.00;;
7587;SDS011;3835;48.850;8.938;2023-05-29T07:25:54;18.40;;;17.07;;
7587;SDS011;3835;48.850;8.938;2023-05-29T07:28:22;17.23;;;16.13;;
7587;SDS011;3835;48.850;8.938;2023-05-29T07:30:49;19.50;;;18.10;;
7587;SDS011;3835;48.850;8.938;2023-05-29T07:33:15;21.43;;;20.10;;
7587;SDS011;3835;48.850;8.938;2023-05-29T07:35:42;18.17;;;16.87;;
7587;SDS011;3835;48.850;8.938;2023-05-29T07:38:09;18.63;;;17.33;;
7587;SDS011;3835;48.850;8.938;2023-05-29T07:40:35;16.87;;;15.87;;
7587;SDS011;3835;48.850;8.938;2023-05-29T07:43:02;18.93;;;17.63;;
7587;SDS011;3835;48.850;8.938;2023-05-29T07:45:30;17.47;;;16.20;;
7587;SDS011;3835;48.850;8.938;2023-05-29T07:47:57;16.37;;;15.27;;
7587;SDS011;3835;48.850;8.938;2023-05-29T07:50:24;17.93;;;16.67;;
7587;SDS011;3835;48.850;8.938;2023-05-29T07:52:50;21.80;;;20.57;;
7587;SDS011;3835;48.850;8.938;2023-05-29T07:55:17;19.30;;;17.97;;
7587;SDS011;3835;48.850;8.938;2023-05-29T07:57:44;18.20;;;16.90;;
7587;SDS011;3835;48.850;8.938;2023-05-29T08:00:12;19.73;;;18.23;;
7587;SDS011;3835;48.850;8.938;2023-05-29T08:02:41;18.40;;;17.10;;
7587;SDS011;3835;48.850;8.938;2023-05-29T08:05:08;18.73;;;17.70;;
7587;SDS011;3835;48.850;8.938;2023-05-29T08:07:36;18.83;;;17.57;;
7587;SDS011;3835;48.850;8.938;2023-05-29T08:10:03;20.70;;;18.97;;
7587;SDS011;3835;48.850;8.938;2023-05-29T08:12:31;20.13;;;18.63;;
7587;SDS011;3835;48.850;8.938;2023-05-29T08:15:00;17.53;;;16.43;;
7587;SDS011;3835;48.850;8.938;2023-05-29T08:17:26;18.23;;;16.93;;
7587;SDS011;3835;48.850;8.938;2023-05-29T08:19:55;18.27;;;17.07;;
7587;SDS011;3835;48.850;8.938;2023-05-29T08:22:27;24.10;;;22.63;;
7587;SDS011;3835;48.850;8.938;2023-05-29T08:24:54;19.63;;;18.43;;
7587;SDS011;3835;48.850;8.938;2023-05-29T08:27:21;18.90;;;17.70;;
7587;SDS011;3835;48.850;8.938;2023-05-29T08:29:47;17.73;;;16.53;;
7587;SDS011;3835;48.850;8.938;2023-05-29T08:32:14;25.40;;;23.97;;
7587;SDS011;3835;48.850;8.938;2023-05-29T08:34:41;20.67;;;19.40;;
7587;SDS011;3835;48.850;8.938;2023-05-29T08:37:11;17.43;;;16.43;;
7587;SDS011;3835;48.850;8.938;2023-05-29T08:39:39;21.53;;;20.27;;
7587;SDS011;3835;48.850;8.938;2023-05-29T08:42:07;21.67;;;20.47;;
7587;SDS011;3835;48.850;8.938;2023-05-29T08:44:39;21.93;;;20.73;;
7587;SDS011;3835;48.850;8.938;2023-05-29T08:47:07;18.80;;;17.70;;
7587;SDS011;3835;48.850;8.938;2023-05-29T08:49:37;21.80;;;20.53;;
7587;SDS011;3835;48.850;8.938;2023-05-29T08:52:09;22.63;;;20.93;;
7587;SDS011;3835;48.850;8.938;2023-05-29T08:54:41;25.97;;;24.17;;
7587;SDS011;3835;48.850;8.938;2023-05-29T08:57:09;18.53;;;17.33;;
7587;SDS011;3835;48.850;8.938;2023-05-29T08:59:37;17.23;;;16.23;;
7587;SDS011;3835;48.850;8.938;2023-05-29T09:02:07;22.67;;;21.43;;
7587;SDS011;3835;48.850;8.938;2023-05-29T09:04:35;26.40;;;25.00;;
7587;SDS011;3835;48.850;8.938;2023-05-29T09:07:02;33.33;;;31.57;;
7587;SDS011;3835;48.850;8.938;2023-05-29T09:09:32;21.33;;;19.93;;
7587;SDS011;3835;48.850;8.938;2023-05-29T09:11:59;26.13;;;24.60;;
7587;SDS011;3835;48.850;8.938;2023-05-29T09:14:34;17.90;;;16.80;;
7587;SDS011;3835;48.850;8.938;2023-05-29T09:17:02;19.90;;;18.77;;
7587;SDS011;3835;48.850;8.938;2023-05-29T09:19:31;17.20;;;15.97;;
7587;SDS011;3835;48.850;8.938;2023-05-29T09:22:02;17.70;;;16.57;;
7587;SDS011;3835;48.850;8.938;2023-05-29T09:24:30;17.00;;;15.90;;
7587;SDS011;3835;48.850;8.938;2023-05-29T09:27:01;19.40;;;17.87;;
7587;SDS011;3835;48.850;8.938;2023-05-29T09:29:30;20.57;;;19.37;;
7587;SDS011;3835;48.850;8.938;2023-05-29T09:31:58;18.23;;;16.93;;
7587;SDS011;3835;48.850;8.938;2023-05-29T09:34:25;17.20;;;16.03;;
7587;SDS011;3835;48.850;8.938;2023-05-29T09:36:52;18.57;;;17.37;;
7587;SDS011;3835;48.850;8.938;2023-05-29T09:39:21;18.10;;;17.03;;
7587;SDS011;3835;48.850;8.938;2023-05-29T09:41:49;17.43;;;16.10;;
7587;SDS011;3835;48.850;8.938;2023-05-29T09:44:16;14.70;;;13.67;;
7587;SDS011;3835;48.850;8.938;2023-05-29T09:46:42;14.87;;;13.97;;
7587;SDS011;3835;48.850;8.938;2023-05-29T09:49:11;15.87;;;14.77;;
7587;SDS011;3835;48.850;8.938;2023-05-29T09:51:38;16.17;;;15.07;;
7587;SDS011;3835;48.850;8.938;2023-05-29T09:54:14;17.43;;;16.37;;
7587;SDS011;3835;48.850;8.938;2023-05-29T09:56:42;17.50;;;16.37;;
7587;SDS011;3835;48.850;8.938;2023-05-29T09:59:12;16.30;;;15.10;;
7587;SDS011;3835;48.850;8.938;2023-05-29T10:01:40;16.00;;;14.90;;
7587;SDS011;3835;48.850;8.938;2023-05-29T10:04:09;15.97;;;14.97;;
7587;SDS011;3835;48.850;8.938;2023-05-29T10:06:36;16.93;;;15.93;;
7587;SDS011;3835;48.850;8.938;2023-05-29T10:09:05;17.00;;;15.70;;
7587;SDS011;3835;48.850;8.938;2023-05-29T10:11:35;17.07;;;15.80;;
7587;SDS011;3835;48.850;8.938;2023-05-29T10:14:03;17.00;;;15.70;;
7587;SDS011;3835;48.850;8.938;2023-05-29T10:16:34;15.53;;;14.63;;
7587;SDS011;3835;48.850;8.938;2023-05-29T10:19:06;16.03;;;14.77;;
7587;SDS011;3835;48.850;8.938;2023-05-29T10:21:39;16.57;;;15.30;;
7587;SDS011;3835;48.850;8.938;2023-05-29T10:24:07;17.07;;;15.67;;
7587;SDS011;3835;48.850;8.938;2023-05-29T10:26:36;15.50;;;14.43;;
7587;SDS011;3835;48.850;8.938;2023-05-29T10:29:05;15.80;;;14.70;;
7587;SDS011;3835;48.850;8.938;2023-05-29T10:31:42;15.80;;;14.73;;
7587;SDS011;3835;48.850;8.938;2023-05-29T10:34:27;15.03;;;13.83;;
7587;SDS011;3835;48.850;8.938;2023-05-29T10:37:01;17.87;;;16.83;;
7587;SDS011;3835;48.850;8.938;2023-05-29T10:39:32;16.67;;;15.50;;
7587;SDS011;3835;48.850;8.938;2023-05-29T10:41:59;15.70;;;14.70;;
7587;SDS011;3835;48.850;8.938;2023-05-29T10:44:39;16.17;;;15.03;;
7587;SDS011;3835;48.850;8.938;2023-05-29T10:47:07;19.07;;;17.87;;
7587;SDS011;3835;48.850;8.938;2023-05-29T10:49:37;17.10;;;16.17;;
7587;SDS011;3835;48.850;8.938;2023-05-29T10:52:04;17.00;;;15.77;;
7587;SDS011;3835;48.850;8.938;2023-05-29T10:54:40;15.30;;;14.20;;
7587;SDS011;3835;48.850;8.938;2023-05-29T10:57:15;16.30;;;14.80;;
7587;SDS011;3835;48.850;8.938;2023-05-29T10:59:42;15.87;;;14.83;;
7587;SDS011;3835;48.850;8.938;2023-05-29T11:02:12;17.57;;;16.43;;
7587;SDS011;3835;48.850;8.938;2023-05-29T11:04:44;16.63;;;15.43;;
7587;SDS011;3835;48.850;8.938;2023-05-29T11:07:32;16.30;;;15.07;;
7587;SDS011;3835;48.850;8.938;2023-05-29T11:10:10;17.60;;;16.40;;
7587;SDS011;3835;48.850;8.938;2023-05-29T11:15:23;15.77;;;14.87;;
7587;SDS011;3835;48.850;8.938;2023-05-29T11:17:52;16.93;;;15.83;;
7587;SDS011;3835;48.850;8.938;2023-05-29T11:20:35;15.83;;;14.83;;
7587;SDS011;3835;48.850;8.938;2023-05-29T11:23:03;15.83;;;14.77;;
7587;SDS011;3835;48.850;8.938;2023-05-29T11:25:33;16.47;;;15.47;;
7587;SDS011;3835;48.850;8.938;2023-05-29T11:28:02;14.63;;;13.80;;
7587;SDS011;3835;48.850;8.938;2023-05-29T11:30:40;14.30;;;13.40;;
7587;SDS011;3835;48.850;8.938;2023-05-29T11:33:09;16.27;;;15.30;;
7587;SDS011;3835;48.850;8.938;2023-05-29T11:35:46;15.20;;;14.30;;
7587;SDS011;3835;48.850;8.938;2023-05-29T11:38:19;16.97;;;15.97;;
7587;SDS011;3835;48.850;8.938;2023-05-29T11:40:46;16.93;;;15.73;;
7587;SDS011;3835;48.850;8.938;2023-05-29T11:43:13;13.23;;;12.33;;
7587;SDS011;3835;48.850;8.938;2023-05-29T11:45:39;17.80;;;16.47;;
7587;SDS011;3835;48.850;8.938;2023-05-29T11:48:06;13.97;;;13.07;;
7587;SDS011;3835;48.850;8.938;2023-05-29T11:50:35;16.03;;;15.07;;
7587;SDS011;3835;48.850;8.938;2023-05-29T11:53:05;17.90;;;16.53;;
7587;SDS011;3835;48.850;8.938;2023-05-29T11:55:32;16.70;;;15.70;;
7587;SDS011;3835;48.850;8.938;2023-05-29T11:58:00;15.27;;;14.23;;
7587;SDS011;3835;48.850;8.938;2023-05-29T12:00:30;15.40;;;14.43;;
7587;SDS011;3835;48.850;8.938;2023-05-29T12:02:57;15.70;;;14.60;;
7587;SDS011;3835;48.850;8.938;2023-05-29T12:05:30;14.87;;;13.93;;
7587;SDS011;3835;48.850;8.938;2023-05-29T12:07:57;15.70;;;14.83;;
7587;SDS011;3835;48.850;8.938;2023-05-29T12:10:26;15.37;;;14.23;;
7587;SDS011;3835;48.850;8.938;2023-05-29T12:12:53;14.97;;;14.13;;
7587;SDS011;3835;48.850;8.938;2023-05-29T12:15:21;16.40;;;15.50;;
7587;SDS011;3835;48.850;8.938;2023-05-29T12:17:48;15.47;;;14.40;;
7587;SDS011;3835;48.850;8.938;2023-05-29T12:20:16;15.43;;;14.27;;
7587;SDS011;3835;48.850;8.938;2023-05-29T12:22:45;14.50;;;13.50;;
7587;SDS011;3835;48.850;8.938;2023-05-29T12:25:13;15.33;;;14.37;;
7587;SDS011;3835;48.850;8.938;2023-05-29T12:27:41;15.77;;;14.87;;
7587;SDS011;3835;48.850;8.938;2023-05-29T12:30:09;16.00;;;15.00;;
7587;SDS011;3835;48.850;8.938;2023-05-29T12:32:37;14.77;;;13.87;;
7587;SDS011;3835;48.850;8.938;2023-05-29T12:35:15;14.80;;;13.87;;
7587;SDS011;3835;48.850;8.938;2023-05-29T12:37:45;13.90;;;13.10;;
7587;SDS011;3835;48.850;8.938;2023-05-29T12:40:16;14.73;;;13.77;;
7587;SDS011;3835;48.850;8.938;2023-05-29T12:42:45;14.13;;;13.23;;
7587;SDS011;3835;48.850;8.938;2023-05-29T12:45:12;16.67;;;15.73;;
7587;SDS011;3835;48.850;8.938;2023-05-29T12:47:44;15.70;;;14.60;;
7587;SDS011;3835;48.850;8.938;2023-05-29T12:50:22;14.83;;;13.93;;
7587;SDS011;3835;48.850;8.938;2023-05-29T12:52:55;15.37;;;14.17;;
7587;SDS011;3835;48.850;8.938;2023-05-29T12:55:23;13.90;;;13.10;;
7587;SDS011;3835;48.850;8.938;2023-05-29T12:57:50;16.07;;;15.07;;
7587;SDS011;3835;48.850;8.938;2023-05-29T13:00:18;15.37;;;14.47;;
7587;SDS011;3835;48.850;8.938;2023-05-29T13:02:46;12.80;;;12.00;;
7587;SDS011;3835;48.850;8.938;2023-05-29T13:05:13;15.80;;;14.90;;
7587;SDS011;3835;48.850;8.938;2023-05-29T13:07:41;14.80;;;13.80;;
7587;SDS011;3835;48.850;8.938;2023-05-29T13:10:09;15.33;;;14.53;;
7587;SDS011;3835;48.850;8.938;2023-05-29T13:12:36;14.50;;;13.70;;
7587;SDS011;3835;48.850;8.938;2023-05-29T13:15:03;15.57;;;14.50;;
7587;SDS011;3835;48.850;8.938;2023-05-29T13:17:31;13.93;;;13.13;;
7587;SDS011;3835;48.850;8.938;2023-05-29T13:19:57;16.87;;;15.77;;
7587;SDS011;3835;48.850;8.938;2023-05-29T13:22:24;14.23;;;13.23;;
7587;SDS011;3835;48.850;8.938;2023-05-29T13:24:55;14.30;;;13.50;;
7587;SDS011;3835;48.850;8.938;2023-05-29T13:27:24;16.20;;;15.40;;
7587;SDS011;3835;48.850;8.938;2023-05-29T13:29:51;14.17;;;13.37;;
7587;SDS011;3835;48.850;8.938;2023-05-29T13:32:18;14.53;;;13.53;;
7587;SDS011;3835;48.850;8.938;2023-05-29T13:34:45;14.77;;;13.77;;
7587;SDS011;3835;48.850;8.938;2023-05-29T13:37:12;13.50;;;12.60;;
7587;SDS011;3835;48.850;8.938;2023-05-29T13:39:39;14.13;;;13.03;;
7587;SDS011;3835;48.850;8.938;2023-05-29T13:42:07;15.73;;;14.77;;
7587;SDS011;3835;48.850;8.938;2023-05-29T13:44:36;14.50;;;13.60;;
7587;SDS011;3835;48.850;8.938;2023-05-29T13:47:04;14.47;;;13.67;;
7587;SDS011;3835;48.850;8.938;2023-05-29T13:49:31;15.23;;;14.03;;
7587;SDS011;3835;48.850;8.938;2023-05-29T13:51:58;14.77;;;13.80;;
7587;SDS011;3835;48.850;8.938;2023-05-29T13:54:25;14.43;;;13.63;;
7587;SDS011;3835;48.850;8.938;2023-05-29T13:56:54;14.77;;;13.93;;
7587;SDS011;3835;48.850;8.938;2023-05-29T13:59:22;14.17;;;13.00;;
7587;SDS011;3835;48.850;8.938;2023-05-29T14:01:50;14.67;;;13.87;;
7587;SDS011;3835;48.850;8.938;2023-05-29T14:04:17;13.53;;;12.67;;
7587;SDS011;3835;48.850;8.938;2023-05-29T14:06:43;15.27;;;14.20;;
7587;SDS011;3835;48.850;8.938;2023-05-29T14:09:10;15.87;;;14.97;;
7587;SDS011;3835;48.850;8.938;2023-05-29T14:11:38;15.70;;;14.60;;
7587;SDS011;3835;48.850;8.938;2023-05-29T14:14:05;14.37;;;13.67;;
7587;SDS011;3835;48.850;8.938;2023-05-29T14:16:32;15.53;;;14.73;;
7587;SDS011;3835;48.850;8.938;2023-05-29T14:19:00;15.00;;;14.10;;
7587;SDS011;3835;48.850;8.938;2023-05-29T14:21:27;14.47;;;13.27;;
7587;SDS011;3835;48.850;8.938;2023-05-29T14:23:53;15.17;;;14.17;;
7587;SDS011;3835;48.850;8.938;2023-05-29T14:26:20;17.07;;;15.90;;
7587;SDS011;3835;48.850;8.938;2023-05-29T14:28:47;16.93;;;16.03;;
7587;SDS011;3835;48.850;8.938;2023-05-29T14:31:14;15.90;;;14.57;;
7587;SDS011;3835;48.850;8.938;2023-05-29T14:33:40;13.60;;;12.77;;
7587;SDS011;3835;48.850;8.938;2023-05-29T14:36:08;15.30;;;14.50;;
7587;SDS011;3835;48.850;8.938;2023-05-29T14:38:35;16.30;;;15.50;;
7587;SDS011;3835;48.850;8.938;2023-05-29T14:41:02;15.57;;;14.60;;
7587;SDS011;3835;48.850;8.938;2023-05-29T14:43:29;13.93;;;13.13;;
7587;SDS011;3835;48.850;8.938;2023-05-29T14:45:56;15.50;;;14.70;;
7587;SDS011;3835;48.850;8.938;2023-05-29T14:48:22;16.60;;;15.57;;
7587;SDS011;3835;48.850;8.938;2023-05-29T14:50:49;13.77;;;12.90;;
7587;SDS011;3835;48.850;8.938;2023-05-29T14:53:17;15.23;;;14.43;;
7587;SDS011;3835;48.850;8.938;2023-05-29T14:55:45;14.87;;;13.97;;